Time;durP1;ratioP1;P1;durP2;ratioP2;P2;SDS_P1;SDS_P2;PMS_P1;PMS_P2;Temp;Humidity;BMP_temperature;BMP_pressure;BME280_temperature;BME280_humidity;BME280_pressure;Samples;Min_cycle;Max_cycle;Signal;HPM_P1;HPM_P2
2021/10/28 00:12:58;;;;;;;3.65;0.93;;;;;;;14.00;67.17;99676.31;5006029;28;20483;-51
2021/10/28 00:15:30;;;;;;;2.35;0.70;;;;;;;14.00;67.22;99678.91;5005017;28;20103;-50
2021/10/28 00:20:44;;;;;;;3.50;0.93;;;;;;;13.98;67.94;99678.06;5008462;28;20482;-49
2021/10/28 00:23:11;;;;;;;4.80;0.75;;;;;;;13.97;66.94;99682.44;5014984;28;20364;-48
2021/10/28 00:25:38;;;;;;;4.03;0.93;;;;;;;13.93;67.06;99664.31;5009099;28;20489;-49
2021/10/28 00:28:06;;;;;;;5.30;1.10;;;;;;;13.94;67.52;99666.03;5002164;28;20099;-49
2021/10/28 00:30:34;;;;;;;7.13;0.90;;;;;;;13.93;67.63;99661.72;5019401;28;20046;-49
2021/10/28 00:33:00;;;;;;;4.45;0.98;;;;;;;13.92;67.61;99657.41;5009750;28;20108;-48
2021/10/28 00:35:27;;;;;;;4.13;0.80;;;;;;;13.90;67.61;99653.97;5017669;28;20524;-48
2021/10/28 00:37:54;;;;;;;3.13;0.98;;;;;;;13.88;68.27;99651.41;5007543;28;20096;-48
2021/10/28 00:40:21;;;;;;;3.90;1.20;;;;;;;13.84;68.04;99653.22;5007794;28;20049;-48
2021/10/28 00:42:48;;;;;;;4.68;1.00;;;;;;;13.83;67.86;99654.13;5006300;28;20046;-50
2021/10/28 00:45:22;;;;;;;3.90;1.00;;;;;;;13.84;67.65;99665.38;5008885;28;20062;-48
2021/10/28 00:47:48;;;;;;;2.38;1.05;;;;;;;13.82;68.28;99652.38;5004863;28;20056;-51
2021/10/28 00:50:15;;;;;;;5.07;0.93;;;;;;;13.78;68.31;99658.56;5007416;28;20084;-49
2021/10/28 00:52:41;;;;;;;4.10;0.70;;;;;;;13.84;68.41;99650.63;5011466;28;20096;-51
2021/10/28 00:55:09;;;;;;;4.25;1.23;;;;;;;13.85;67.50;99651.50;5006666;28;20100;-50
2021/10/28 00:57:36;;;;;;;3.85;0.70;;;;;;;13.84;67.67;99647.16;5004637;28;20045;-47
2021/10/28 01:00:05;;;;;;;2.38;0.82;;;;;;;13.85;67.91;99636.72;5002318;28;20050;-48
2021/10/28 01:02:31;;;;;;;4.47;0.82;;;;;;;13.84;67.89;99640.22;5004601;28;20046;-47
2021/10/28 01:04:59;;;;;;;3.28;0.95;;;;;;;13.80;66.84;99635.97;5008882;28;20053;-47
2021/10/28 01:07:27;;;;;;;2.05;0.80;;;;;;;13.79;67.37;99631.66;5010900;28;20100;-49
2021/10/28 01:09:54;;;;;;;3.85;0.93;;;;;;;13.78;66.72;99644.72;5016141;28;20046;-48
2021/10/28 01:12:21;;;;;;;2.95;0.70;;;;;;;13.75;67.62;99641.25;5005935;28;20453;-48
2021/10/28 01:14:48;;;;;;;6.15;1.30;;;;;;;13.73;67.15;99639.59;5008078;28;20056;-48
2021/10/28 01:17:14;;;;;;;4.95;0.90;;;;;;;13.75;67.02;99640.44;5018526;28;20430;-48
2021/10/28 01:19:43;;;;;;;5.05;0.88;;;;;;;13.75;66.21;99640.44;5010892;28;20490;-48
2021/10/28 01:22:09;;;;;;;2.90;0.90;;;;;;;13.73;67.02;99653.47;5006199;28;20057;-47
2021/10/28 01:24:36;;;;;;;7.68;1.35;;;;;;;13.74;66.96;99651.72;5012319;28;20604;-48
2021/10/28 01:27:05;;;;;;;3.92;1.00;;;;;;;13.79;67.34;99662.91;5013849;28;20535;-50
2021/10/28 01:29:32;;;;;;;2.78;0.70;;;;;;;13.79;67.18;99652.47;4998606;28;20038;-47
2021/10/28 01:31:59;;;;;;;3.83;0.60;;;;;;;13.79;66.63;99652.47;5004026;28;20494;-47
2021/10/28 01:34:26;;;;;;;1.98;0.55;;;;;;;13.78;66.56;99649.91;5006642;28;20057;-49
2021/10/28 01:36:52;;;;;;;3.60;0.60;;;;;;;13.76;66.84;99649.94;5017445;28;20038;-50
2021/10/28 01:39:22;;;;;;;4.47;1.20;;;;;;;13.77;66.47;99651.66;5008398;28;20539;-50
2021/10/28 01:41:50;;;;;;;2.03;0.80;;;;;;;13.77;66.52;99638.63;5007373;28;20046;-48
2021/10/28 01:44:17;;;;;;;5.45;1.02;;;;;;;13.76;67.02;99652.53;5004171;28;20096;-48
2021/10/28 01:46:44;;;;;;;3.17;0.82;;;;;;;13.80;67.04;99653.31;5008298;28;20081;-48
2021/10/28 01:49:23;;;;;;;3.53;1.10;;;;;;;13.77;66.89;99653.41;5006817;28;20112;-48
2021/10/28 01:51:50;;;;;;;1.80;0.80;;;;;;;13.80;66.57;99653.31;5008275;28;20434;-51
2021/10/28 01:54:17;;;;;;;3.00;1.05;;;;;;;13.77;66.92;99649.03;5001581;28;20107;-48
2021/10/28 01:56:46;;;;;;;3.85;1.10;;;;;;;13.80;66.63;99642.91;5009039;28;20049;-47
2021/10/28 01:59:12;;;;;;;4.70;1.23;;;;;;;13.80;66.69;99648.97;5002220;28;20050;-51
2021/10/28 02:01:40;;;;;;;3.35;0.85;;;;;;;13.80;66.61;99648.97;5006341;28;20041;-48
2021/10/28 02:04:08;;;;;;;3.10;0.70;;;;;;;13.79;66.36;99647.28;5003602;28;20072;-49
2021/10/28 02:06:34;;;;;;;4.32;0.95;;;;;;;13.81;67.16;99644.66;5008465;28;20045;-48
2021/10/28 02:09:02;;;;;;;2.15;0.93;;;;;;;13.79;67.33;99630.78;5005125;28;20042;-47
2021/10/28 02:11:29;;;;;;;4.65;1.40;;;;;;;13.78;67.29;99642.94;5005422;28;20057;-47
2021/10/28 02:13:58;;;;;;;5.00;1.02;;;;;;;13.77;66.83;99636.03;4992958;28;20104;-48
2021/10/28 02:16:30;;;;;;;2.45;1.05;;;;;;;13.79;66.70;99631.66;5004878;28;20054;-47
2021/10/28 02:18:58;;;;;;;3.53;0.60;;;;;;;13.79;67.25;99636.88;5007003;28;20046;-47
2021/10/28 02:21:25;;;;;;;3.75;1.27;;;;;;;13.81;66.97;99642.88;5001865;28;20104;-48
2021/10/28 02:23:52;;;;;;;2.78;0.73;;;;;;;13.78;66.61;99629.94;5003548;28;20085;-52
2021/10/28 02:26:19;;;;;;;6.20;1.63;;;;;;;13.79;67.10;99626.47;5009213;28;20084;-48
2021/10/28 02:28:45;;;;;;;3.63;1.35;;;;;;;13.79;66.92;99626.47;5004410;28;20107;-51
2021/10/28 02:31:13;;;;;;;3.38;0.73;;;;;;;13.78;67.54;99614.31;5005760;28;20120;-46
2021/10/28 02:33:40;;;;;;;4.35;1.02;;;;;;;13.77;67.11;99612.59;5003390;28;20088;-47
2021/10/28 02:36:06;;;;;;;5.75;0.75;;;;;;;13.73;66.87;99616.16;5008157;28;20758;-49
2021/10/28 02:38:33;;;;;;;7.35;1.42;;;;;;;13.77;67.58;99604.78;5004943;28;20580;-50
2021/10/28 02:41:00;;;;;;;4.50;1.17;;;;;;;13.79;67.21;99597.81;5010486;28;20073;-48
2021/10/28 02:43:26;;;;;;;2.65;1.00;;;;;;;13.77;67.46;99602.19;5012466;28;20045;-47
2021/10/28 02:45:54;;;;;;;3.78;1.05;;;;;;;13.77;67.63;99591.78;5008337;28;20054;-48
2021/10/28 02:48:21;;;;;;;4.32;1.40;;;;;;;13.74;67.86;99592.72;5026055;28;20049;-47
2021/10/28 02:50:47;;;;;;;6.40;1.77;;;;;;;13.73;67.82;99584.94;5008236;28;20107;-49
2021/10/28 02:53:14;;;;;;;3.15;0.65;;;;;;;13.72;66.93;99593.66;5013755;28;20104;-47
2021/10/28 02:55:41;;;;;;;2.22;0.88;;;;;;;13.72;67.08;99589.28;5008094;28;20089;-48
2021/10/28 02:58:07;;;;;;;2.53;0.70;;;;;;;13.72;66.95;99583.25;5012399;28;20062;-47
2021/10/28 03:00:34;;;;;;;3.88;1.05;;;;;;;13.71;67.58;99576.34;5006253;28;20104;-50
2021/10/28 03:03:01;;;;;;;6.07;1.25;;;;;;;13.72;67.14;99581.47;5007216;28;20046;-48
2021/10/28 03:05:29;;;;;;;6.22;1.15;;;;;;;13.73;67.82;99577.13;5005702;28;20088;-47
2021/10/28 03:07:55;;;;;;;3.50;0.70;;;;;;;13.76;67.57;99574.47;5007960;28;20096;-47
2021/10/28 03:10:22;;;;;;;4.43;1.30;;;;;;;13.73;67.93;99564.13;5008821;28;20131;-47
2021/10/28 03:12:52;;;;;;;3.20;0.93;;;;;;;13.75;67.79;99568.41;5006094;28;20081;-48
2021/10/28 03:15:18;;;;;;;;;;;;;;;13.62;67.58;99557.41;5015097;28;20050;-48
2021/10/28 03:26:05;;;;;;;2.90;1.52;;;;;;;13.73;67.96;99548.50;5005223;28;20101;-47
2021/10/28 03:28:32;;;;;;;5.32;1.13;;;;;;;13.70;67.22;99548.56;5021396;28;20444;-51
2021/10/28 03:30:58;;;;;;;3.10;1.15;;;;;;;13.69;67.44;99544.28;5011175;28;20076;-47
2021/10/28 03:33:25;;;;;;;3.80;1.15;;;;;;;13.68;67.07;99538.19;5009744;28;20054;-47
2021/10/28 03:35:52;;;;;;;5.05;0.68;;;;;;;13.68;67.20;99540.78;5009394;28;20322;-47
2021/10/28 03:38:25;;;;;;;5.40;1.90;;;;;;;13.71;66.58;99550.31;5007681;28;20070;-51
2021/10/28 03:46:45;;;;;;;1.52;0.93;;;;;;;13.68;67.89;99546.00;5011863;28;20053;-49
2021/10/28 04:01:04;;;;;;;2.58;0.75;;;;;;;13.66;67.78;99542.59;5003982;28;20100;-47
2021/10/28 04:03:50;;;;;;;3.38;1.35;;;;;;;13.63;67.90;99540.06;4990189;28;20081;-48
2021/10/28 04:17:19;;;;;;;2.20;0.82;;;;;;;13.61;67.60;99550.50;5012002;28;20124;-47
2021/10/28 04:19:54;;;;;;;5.38;1.45;;;;;;;13.63;68.32;99547.88;5015580;28;20038;-49
2021/10/28 04:30:40;;;;;;;4.18;1.75;;;;;;;13.58;67.24;99555.78;5007135;28;20103;-47
2021/10/28 04:33:07;;;;;;;2.28;1.67;;;;;;;13.60;67.97;99548.81;5012007;28;20045;-48
2021/10/28 04:35:34;;;;;;;8.52;1.67;;;;;;;13.60;67.01;99547.94;5012913;28;20058;-47
2021/10/28 04:38:01;;;;;;;5.00;1.45;;;;;;;13.61;66.67;99549.63;5006100;28;20054;-47
2021/10/28 04:40:27;;;;;;;2.67;1.38;;;;;;;13.57;67.34;99551.47;5010724;28;20489;-48
2021/10/28 04:42:54;;;;;;;3.83;1.30;;;;;;;13.59;67.93;99541.03;5013579;28;20532;-48
2021/10/28 04:45:20;;;;;;;5.47;1.35;;;;;;;13.56;67.41;99535.88;5006960;28;20108;-47
2021/10/28 04:47:47;;;;;;;3.72;1.20;;;;;;;13.58;67.09;99540.16;5009004;28;20084;-48
2021/10/28 04:50:14;;;;;;;3.53;2.30;;;;;;;13.56;67.10;99531.56;5010653;28;20427;-48
2021/10/28 04:52:40;;;;;;;3.33;1.15;;;;;;;13.55;67.53;99529.84;5007063;28;20042;-47
2021/10/28 04:55:08;;;;;;;4.53;1.30;;;;;;;13.56;67.53;99526.34;5011603;28;20108;-48
2021/10/28 04:57:35;;;;;;;4.18;1.30;;;;;;;13.54;67.95;99530.72;5007659;28;20050;-47
2021/10/28 05:00:04;;;;;;;3.90;1.33;;;;;;;13.55;67.43;99523.78;5006851;28;20057;-48
2021/10/28 05:02:32;;;;;;;3.78;0.90;;;;;;;13.53;67.80;99510.81;5006213;28;20050;-47
2021/10/28 05:04:58;;;;;;;2.30;1.08;;;;;;;13.50;67.83;99503.06;4998660;28;20077;-48
2021/10/28 05:07:25;;;;;;;2.65;1.00;;;;;;;13.49;67.57;99498.75;5009137;28;20049;-47
2021/10/28 05:09:52;;;;;;;3.33;1.10;;;;;;;13.45;67.46;99500.53;5005685;28;20046;-49
2021/10/28 05:12:18;;;;;;;3.40;1.30;;;;;;;13.40;68.12;99498.97;5012055;28;20057;-49
2021/10/28 05:14:45;;;;;;;3.88;1.10;;;;;;;13.37;67.59;99500.72;5009281;28;20385;-48
2021/10/28 05:17:11;;;;;;;6.93;1.08;;;;;;;13.33;67.99;99495.63;5006217;28;20050;-48
2021/10/28 05:19:38;;;;;;;3.22;1.15;;;;;;;13.31;67.96;99495.66;5015737;28;20046;-50
2021/10/28 05:22:07;;;;;;;4.97;0.80;;;;;;;13.34;67.73;99484.34;5008929;28;20621;-50
2021/10/28 05:24:34;;;;;;;5.40;1.05;;;;;;;13.28;67.96;99482.75;5009824;28;20046;-47
2021/10/28 05:27:01;;;;;;;4.13;1.55;;;;;;;13.24;67.93;99488.88;4995328;28;20543;-48
2021/10/28 05:29:28;;;;;;;3.53;1.17;;;;;;;13.24;68.71;99486.28;5005099;28;20488;-48
2021/10/28 05:31:55;;;;;;;3.88;1.63;;;;;;;13.25;69.18;99490.63;5007704;28;20624;-50
2021/10/28 05:34:21;;;;;;;2.80;0.80;;;;;;;13.21;68.62;99483.78;5000582;28;20107;-49
2021/10/28 05:36:49;;;;;;;3.50;0.90;;;;;;;13.23;68.52;99492.38;5005529;28;20045;-48
2021/10/28 05:39:15;;;;;;;3.53;0.85;;;;;;;13.21;68.39;99483.78;5003342;28;20049;-48
2021/10/28 05:41:42;;;;;;;3.80;1.02;;;;;;;13.15;68.19;99478.69;5014838;28;20049;-48
2021/10/28 05:44:09;;;;;;;6.10;1.08;;;;;;;13.13;68.38;99483.09;5007469;28;20045;-48
2021/10/28 05:46:36;;;;;;;3.50;1.30;;;;;;;13.09;68.27;99479.69;5008714;28;20046;-47
2021/10/28 05:49:03;;;;;;;2.20;0.98;;;;;;;13.05;69.00;99473.72;5005766;28;20041;-48
2021/10/28 05:51:30;;;;;;;5.20;1.33;;;;;;;13.02;69.35;99478.97;5007826;28;20552;-50
2021/10/28 05:53:56;;;;;;;1.63;0.88;;;;;;;13.03;68.42;99480.69;5011063;28;20107;-48
2021/10/28 05:56:23;;;;;;;3.88;1.13;;;;;;;12.97;69.71;99484.28;5003239;28;20058;-49
2021/10/28 05:58:50;;;;;;;3.90;1.35;;;;;;;12.94;69.65;99475.69;5010095;28;20469;-49
2021/10/28 06:01:16;;;;;;;2.22;1.17;;;;;;;12.91;69.04;99471.44;5002857;28;20104;-48
2021/10/28 06:03:43;;;;;;;5.05;1.23;;;;;;;12.89;68.82;99472.31;5014198;28;20047;-48
2021/10/28 06:06:10;;;;;;;4.53;1.17;;;;;;;12.87;69.83;99471.53;5004355;28;20124;-50
2021/10/28 06:08:36;;;;;;;3.50;1.00;;;;;;;12.82;69.49;99459.47;5006350;28;20053;-48
2021/10/28 06:11:03;;;;;;;3.53;1.13;;;;;;;12.80;68.65;99458.63;5014591;28;20041;-51
2021/10/28 06:13:30;;;;;;;4.43;1.55;;;;;;;12.75;69.23;99460.50;5004218;28;20415;-49
2021/10/28 06:15:58;;;;;;;2.42;0.98;;;;;;;12.71;69.78;99456.25;5015463;28;20053;-49
2021/10/28 06:18:37;;;;;;;3.80;1.10;;;;;;;12.77;70.09;99450.06;5004195;28;20128;-48
2021/10/28 06:21:05;;;;;;;2.88;1.17;;;;;;;12.72;69.62;99447.56;5013793;28;20046;-49
2021/10/28 06:23:33;;;;;;;4.68;1.88;;;;;;;12.69;69.66;99451.09;5012531;28;20545;-49
2021/10/28 06:26:00;;;;;;;2.60;1.35;;;;;;;12.68;70.11;99453.72;5010545;28;20046;-50
2021/10/28 06:28:27;;;;;;;5.05;1.55;;;;;;;12.65;70.09;99448.56;5010402;28;20081;-48
2021/10/28 06:30:54;;;;;;;3.75;1.25;;;;;;;12.64;69.41;99447.75;5012574;28;20045;-47
2021/10/28 06:33:24;;;;;;;3.65;1.02;;;;;;;12.63;70.30;99442.56;5018316;28;20045;-47
2021/10/28 06:35:51;;;;;;;3.63;0.85;;;;;;;12.64;70.26;99441.69;5001773;28;20466;-47
2021/10/28 06:38:18;;;;;;;2.58;1.60;;;;;;;12.62;70.68;99433.03;5018014;28;20072;-48
2021/10/28 06:40:45;;;;;;;2.30;1.08;;;;;;;12.60;69.40;99436.53;5008391;28;20137;-47
2021/10/28 06:43:11;;;;;;;4.47;1.00;;;;;;;12.59;69.73;99432.25;5008629;28;20108;-47
2021/10/28 06:45:38;;;;;;;4.45;1.13;;;;;;;12.60;70.15;99423.56;5007031;28;20045;-47
2021/10/28 06:48:06;;;;;;;2.28;1.05;;;;;;;12.60;70.43;99426.16;5004455;28;21065;-47
2021/10/28 06:50:40;;;;;;;5.85;0.82;;;;;;;12.60;70.83;99418.34;5004478;28;20037;-49
2021/10/28 06:53:19;;;;;;;2.35;0.60;;;;;;;12.58;71.13;99422.75;5006763;28;20092;-46
2021/10/28 07:04:08;;;;;;;4.25;1.33;;;;;;;12.54;70.20;99400.31;5002854;28;20056;-48
2021/10/28 07:06:38;;;;;;;2.53;1.02;;;;;;;12.55;70.96;99396.81;5008925;28;20041;-47
2021/10/28 07:09:18;;;;;;;2.45;1.10;;;;;;;12.53;71.13;99396.00;5010812;28;20046;-50
2021/10/28 07:11:51;;;;;;;3.28;0.80;;;;;;;12.53;70.65;99396.00;5012754;28;20793;-49
2021/10/28 07:14:17;;;;;;;5.78;1.02;;;;;;;12.52;71.24;99378.69;5010222;28;20068;-49
2021/10/28 07:16:58;;;;;;;4.97;1.20;;;;;;;12.57;71.82;99395.03;5008882;28;20057;-48
2021/10/28 07:22:24;;;;;;;3.65;0.85;;;;;;;12.60;70.93;99389.78;5006697;28;20060;-50
2021/10/28 07:25:02;;;;;;;4.38;1.17;;;;;;;12.57;70.98;99389.84;5014986;28;20216;-48
2021/10/28 07:33:17;;;;;;;5.22;1.08;;;;;;;12.66;71.48;99390.56;5021011;28;20420;-47
2021/10/28 07:38:52;;;;;;;4.38;1.27;;;;;;;12.77;71.65;99406.72;4988048;28;20062;-47
2021/10/28 07:58:25;;;;;;;2.13;0.98;;;;;;;13.35;71.70;99397.63;4991453;28;20081;-49
2021/10/28 08:06:28;;;;;;;5.13;1.50;;;;;;;15.62;66.17;99397.19;5012776;28;20112;-49
2021/10/28 08:14:42;;;;;;;3.17;1.20;;;;;;;17.00;61.51;99382.63;5002108;28;20062;-48
2021/10/28 08:17:34;;;;;;;3.78;1.35;;;;;;;17.38;60.51;99380.22;4998796;28;20096;-48
2021/10/28 08:20:01;;;;;;;5.65;1.25;;;;;;;17.71;59.70;99382.34;5000400;28;20116;-49
2021/10/28 08:22:36;;;;;;;3.72;1.00;;;;;;;17.54;58.79;99382.19;4997995;28;20449;-52
2021/10/28 08:30:36;;;;;;;3.55;1.17;;;;;;;16.14;62.04;99386.69;5003721;28;20057;-48
2021/10/28 08:33:03;;;;;;;2.08;0.88;;;;;;;15.94;62.60;99375.19;5005082;28;20089;-51
2021/10/28 08:35:41;;;;;;;2.90;1.13;;;;;;;15.64;63.20;99377.13;5006275;28;20054;-50
2021/10/28 08:38:08;;;;;;;5.40;1.23;;;;;;;15.46;63.99;99368.16;5004659;28;20053;-49
2021/10/28 08:40:34;;;;;;;3.25;1.25;;;;;;;15.28;64.01;99370.50;5007998;28;20371;-48
2021/10/28 08:43:03;;;;;;;5.70;1.08;;;;;;;15.20;64.26;99380.31;5002175;28;20050;-47
2021/10/28 08:45:35;;;;;;;4.43;1.13;;;;;;;15.15;65.08;99378.72;5009868;28;20088;-47
2021/10/28 08:48:04;;;;;;;1.70;1.27;;;;;;;15.12;65.22;99368.38;5007682;28;20430;-49
2021/10/28 08:50:40;;;;;;;1.23;0.88;;;;;;;15.05;65.07;99369.47;5011033;28;20108;-53
2021/10/28 08:55:59;;;;;;;5.63;1.10;;;;;;;14.92;65.70;99362.97;5015669;28;20092;-49
2021/10/28 08:59:28;;;;;;;7.60;1.17;;;;;;;14.82;65.64;99360.63;5012533;28;20077;-48
2021/10/28 09:24:26;;;;;;;3.13;1.48;;;;;;;14.51;67.35;99343.31;5007504;28;20074;-51
2021/10/28 09:27:00;;;;;;;3.25;1.15;;;;;;;14.54;67.33;99340.63;5019856;28;20115;-49
2021/10/28 09:29:39;;;;;;;2.90;0.98;;;;;;;14.55;67.45;99338.88;5012437;28;20122;-49
2021/10/28 09:44:07;;;;;;;4.95;1.50;;;;;;;14.43;67.47;99340.09;5026661;28;20099;-49
2021/10/28 09:46:40;;;;;;;2.97;1.52;;;;;;;14.43;67.70;99340.09;5004956;28;20429;-50
2021/10/28 09:52:06;;;;;;;4.82;1.00;;;;;;;14.36;68.09;99324.63;5010064;28;20108;-50
2021/10/28 10:00:39;;;;;;;3.50;1.10;;;;;;;14.44;67.33;99321.81;5005214;28;20045;-49
2021/10/28 10:03:10;;;;;;;2.28;1.30;;;;;;;14.43;67.25;99319.25;5014653;28;20050;-50
2021/10/28 10:05:38;;;;;;;6.50;1.55;;;;;;;14.44;67.17;99310.50;5012081;28;20072;-48
2021/10/28 10:08:07;;;;;;;4.28;1.77;;;;;;;14.46;66.43;99299.16;5005518;28;20049;-49
2021/10/28 10:10:34;;;;;;;3.88;1.33;;;;;;;14.47;66.57;99292.19;4999896;28;20069;-49
2021/10/28 10:13:02;;;;;;;2.63;0.88;;;;;;;14.47;66.42;99300.00;5006174;28;20042;-49
2021/10/28 10:15:30;;;;;;;2.92;1.10;;;;;;;14.53;67.12;99285.03;5015278;28;20076;-49
2021/10/28 10:18:01;;;;;;;4.50;1.15;;;;;;;14.51;66.26;99291.19;5004149;28;20239;-50
2021/10/28 10:20:36;;;;;;;4.97;1.65;;;;;;;14.44;66.79;99281.84;5007545;28;20097;-51
2021/10/28 10:29:38;;;;;;;3.80;1.33;;;;;;;14.44;66.64;99287.94;5008169;28;20080;-50
2021/10/28 11:20:49;;;;;;;4.13;1.45;;;;;;;15.08;65.44;99231.16;5010035;28;20041;-48
2021/10/28 11:22:59;;;;;;;6.22;2.53;;;;;;;15.20;64.94;99229.03;5013605;28;20657;-50
2021/10/28 12:15:41;;;;;;;6.35;1.90;;;;;;;15.44;63.97;99169.06;5019817;28;20176;-52
2021/10/28 12:23:58;;;;;;;4.40;1.40;;;;;;;15.40;63.95;99170.94;5021537;28;20052;-49
2021/10/28 12:44:12;;;;;;;5.43;1.27;;;;;;;15.47;63.39;99153.28;5009332;28;20049;-49
2021/10/28 12:52:40;;;;;;;2.25;1.23;;;;;;;15.34;64.14;99127.66;5010670;28;20065;-49
2021/10/28 13:04:00;;;;;;;5.55;1.35;;;;;;;15.47;64.39;99098.50;4997101;28;20042;-49
2021/10/28 13:34:59;;;;;;;7.32;1.65;;;;;;;15.54;63.81;99068.66;5005691;28;20058;-48
2021/10/28 13:51:25;;;;;;;3.97;1.85;;;;;;;15.58;64.75;99028.47;5006816;28;20053;-48
2021/10/28 13:59:47;;;;;;;5.32;1.55;;;;;;;15.63;64.45;99016.06;5002510;28;20046;-49
2021/10/28 14:22:04;;;;;;;3.38;1.35;;;;;;;15.60;63.46;99000.53;4990911;28;20421;-49
2021/10/28 14:30:28;;;;;;;2.97;1.55;;;;;;;15.40;63.17;98991.75;5011640;28;20057;-50
2021/10/28 14:33:16;;;;;;;5.97;1.35;;;;;;;15.37;63.53;98986.63;5014368;28;20667;-50
2021/10/28 15:01:17;;;;;;;2.63;1.65;;;;;;;15.10;64.04;98965.94;5008499;28;20125;-53
2021/10/28 15:28:32;;;;;;;3.22;1.83;;;;;;;14.90;63.95;98943.28;5005372;28;20049;-49
2021/10/28 15:39:42;;;;;;;5.53;2.40;;;;;;;14.85;64.55;98919.97;5007768;28;20054;-49
2021/10/28 15:53:34;;;;;;;4.57;1.80;;;;;;;14.78;64.69;98913.31;5004318;28;20045;-49
2021/10/28 15:57:06;;;;;;;4.93;1.73;;;;;;;14.76;64.54;98909.88;5005518;28;20058;-49
2021/10/28 15:59:27;;;;;;;4.70;1.75;;;;;;;14.78;64.66;98913.31;5008223;28;20049;-49
2021/10/28 16:23:46;;;;;;;5.88;2.00;;;;;;;14.47;66.21;98890.97;5022997;28;20049;-49
2021/10/28 16:26:12;;;;;;;7.28;2.55;;;;;;;14.48;66.61;98883.09;5006727;28;20050;-49
2021/10/28 16:28:39;;;;;;;3.00;1.52;;;;;;;14.44;66.74;98883.28;5006803;28;20096;-49
2021/10/28 16:31:06;;;;;;;3.20;2.40;;;;;;;14.40;66.42;98886.00;5003083;28;20053;-48
2021/10/28 16:33:33;;;;;;;4.95;2.22;;;;;;;14.39;66.08;98886.91;5010269;28;20073;-49
2021/10/28 16:36:00;;;;;;;5.82;2.33;;;;;;;14.39;66.48;98886.91;5004201;28;20062;-49
2021/10/28 16:38:26;;;;;;;4.60;1.77;;;;;;;14.37;66.97;98893.94;5010772;28;20461;-51
2021/10/28 16:40:53;;;;;;;6.13;2.15;;;;;;;14.34;67.33;98894.03;5004854;28;20544;-48
2021/10/28 16:43:20;;;;;;;4.97;2.03;;;;;;;14.35;67.10;98903.56;5014023;28;20543;-49
2021/10/28 16:45:47;;;;;;;3.80;2.00;;;;;;;14.34;66.73;98895.78;4998191;28;20450;-48
2021/10/28 16:48:15;;;;;;;5.93;2.55;;;;;;;14.32;67.04;98890.63;5004662;28;20478;-49
2021/10/28 16:50:42;;;;;;;6.25;2.33;;;;;;;14.33;67.28;98901.91;5006366;28;20053;-49
2021/10/28 16:53:09;;;;;;;4.05;1.85;;;;;;;14.34;67.21;98899.25;5011268;28;20045;-48
2021/10/28 16:55:56;;;;;;;6.72;2.03;;;;;;;14.32;67.08;98901.06;5010398;28;20069;-49
2021/10/28 16:58:22;;;;;;;4.20;2.03;;;;;;;14.33;67.43;98905.38;5013656;28;20038;-48
2021/10/28 17:00:50;;;;;;;6.07;2.10;;;;;;;14.33;66.97;98908.00;5007633;28;20042;-48
2021/10/28 17:03:18;;;;;;;8.68;2.50;;;;;;;14.32;67.28;98906.25;5002267;28;20434;-50
2021/10/28 17:05:46;;;;;;;5.13;2.72;;;;;;;14.30;67.40;98905.50;5004963;28;20529;-48
2021/10/28 17:08:13;;;;;;;5.72;2.63;;;;;;;14.31;67.69;98901.09;5006977;28;20123;-48
2021/10/28 17:10:40;;;;;;;5.35;2.45;;;;;;;14.30;67.24;98907.22;5007766;28;20049;-48
2021/10/28 17:13:07;;;;;;;4.00;2.08;;;;;;;14.23;68.09;98901.41;5004397;28;20081;-49
2021/10/28 17:15:33;;;;;;;7.38;2.45;;;;;;;14.25;67.45;98902.19;5006446;28;20058;-49
2021/10/28 17:18:00;;;;;;;5.43;3.13;;;;;;;14.22;67.50;98905.75;4999499;28;20053;-50
2021/10/28 17:20:33;;;;;;;5.88;2.88;;;;;;;14.23;67.52;98902.25;5009078;28;20046;-48
2021/10/28 17:23:01;;;;;;;7.45;2.85;;;;;;;14.19;67.28;98907.63;5007675;28;20052;-49
2021/10/28 17:25:29;;;;;;;3.80;2.33;;;;;;;14.17;68.05;98893.81;5007809;28;20112;-49
2021/10/28 17:27:55;;;;;;;4.60;2.50;;;;;;;14.22;67.92;98894.50;5004654;28;20096;-49
2021/10/28 17:30:22;;;;;;;7.22;3.00;;;;;;;14.22;68.10;98895.34;5000765;28;20138;-50
2021/10/28 17:32:54;;;;;;;7.05;2.58;;;;;;;14.22;67.52;98891.91;5001524;28;20136;-49
2021/10/28 17:35:20;;;;;;;5.15;2.63;;;;;;;14.21;68.10;98888.44;5005139;28;20058;-48
2021/10/28 17:37:47;;;;;;;6.60;2.85;;;;;;;14.19;67.34;98886.78;5005771;28;20046;-48
2021/10/28 17:40:16;;;;;;;6.10;3.03;;;;;;;14.18;67.74;98887.72;5007447;28;20060;-48
2021/10/28 17:42:43;;;;;;;6.95;3.17;;;;;;;14.17;68.44;98893.81;5009601;28;20490;-49
2021/10/28 17:45:12;;;;;;;7.15;2.80;;;;;;;14.17;68.15;98884.25;4998964;28;20054;-50
2021/10/28 17:47:40;;;;;;;7.95;2.60;;;;;;;14.17;67.46;98897.28;4996329;28;20050;-48
2021/10/28 17:50:11;;;;;;;5.05;2.55;;;;;;;14.11;68.66;98890.53;5004511;28;20061;-48
2021/10/28 17:52:38;;;;;;;5.32;2.85;;;;;;;14.09;67.87;98884.50;5010720;28;20076;-50
2021/10/28 17:55:08;;;;;;;6.63;2.47;;;;;;;14.08;68.61;98888.03;5005368;28;20848;-51
2021/10/28 17:57:37;;;;;;;5.55;2.40;;;;;;;14.02;68.64;98883.06;5002589;28;20061;-48
2021/10/28 18:00:06;;;;;;;6.05;2.63;;;;;;;13.98;68.84;98879.69;5002076;28;20141;-50
2021/10/28 18:02:34;;;;;;;8.20;3.25;;;;;;;13.93;69.37;98868.59;5003243;28;20049;-50
2021/10/28 18:05:02;;;;;;;4.97;2.97;;;;;;;13.83;69.51;98870.69;5003191;28;20054;-50
2021/10/28 18:07:29;;;;;;;7.45;2.95;;;;;;;13.84;69.93;98867.19;5003231;28;20058;-49
2021/10/28 18:09:58;;;;;;;9.20;3.75;;;;;;;13.81;70.47;98862.06;5008724;28;20045;-48
2021/10/28 18:12:27;;;;;;;7.68;3.63;;;;;;;13.77;69.99;98863.09;4999174;28;20494;-50
2021/10/28 18:14:54;;;;;;;10.10;3.58;;;;;;;13.78;69.76;98864.78;5004634;28;20042;-48
2021/10/28 18:17:22;;;;;;;6.70;3.13;;;;;;;13.73;70.16;98859.75;5002375;28;20049;-48
2021/10/28 18:19:49;;;;;;;7.03;3.15;;;;;;;13.69;70.14;98870.31;5011413;28;20095;-51
2021/10/28 18:22:16;;;;;;;11.48;4.35;;;;;;;13.70;70.21;98864.19;5008850;28;20548;-48
2021/10/28 18:24:43;;;;;;;9.43;3.42;;;;;;;13.71;70.33;98873.72;5008763;28;20053;-50
2021/10/28 18:27:10;;;;;;;7.32;3.63;;;;;;;13.67;70.78;98866.91;5005694;28;20066;-49
2021/10/28 18:29:37;;;;;;;7.82;3.88;;;;;;;13.62;70.46;98864.47;5011405;28;20062;-48
2021/10/28 18:32:07;;;;;;;9.32;4.18;;;;;;;13.63;70.73;98863.56;5019243;28;20054;-49
2021/10/28 18:34:35;;;;;;;8.88;4.07;;;;;;;13.61;71.65;98858.41;5007605;28;20057;-49
2021/10/28 18:37:02;;;;;;;11.82;3.92;;;;;;;13.64;71.01;98867.03;5009033;28;20046;-49
2021/10/28 18:39:29;;;;;;;11.60;4.40;;;;;;;13.58;70.61;98853.31;5013411;28;20128;-49
2021/10/28 18:41:58;;;;;;;8.70;4.22;;;;;;;13.59;71.08;98849.84;5010504;28;20116;-48
2021/10/28 18:44:26;;;;;;;10.20;4.32;;;;;;;13.57;70.92;98841.22;5019132;28;20077;-48
2021/10/28 18:46:55;;;;;;;6.03;3.60;;;;;;;13.57;70.90;98841.22;5008643;28;20144;-49
2021/10/28 18:49:22;;;;;;;10.05;3.55;;;;;;;13.57;70.46;98848.16;5001181;28;20076;-49
2021/10/28 18:51:49;;;;;;;8.32;4.13;;;;;;;13.49;70.88;98843.22;5009733;28;20096;-49
2021/10/28 18:54:17;;;;;;;8.18;3.65;;;;;;;13.53;70.74;98839.63;5013424;28;20096;-48
2021/10/28 18:56:46;;;;;;;9.52;4.22;;;;;;;13.54;70.85;98840.47;5007691;28;21173;-48
2021/10/28 18:59:14;;;;;;;8.95;3.90;;;;;;;13.47;70.62;98832.00;4988829;28;20089;-49
2021/10/28 19:01:41;;;;;;;7.50;4.35;;;;;;;13.52;71.23;98826.66;5008824;28;20111;-48
2021/10/28 19:04:12;;;;;;;8.27;3.75;;;;;;;13.49;71.37;98831.09;5007413;28;20053;-49
2021/10/28 19:06:40;;;;;;;9.15;3.63;;;;;;;13.48;69.94;98824.16;5013658;28;20107;-49
2021/10/28 19:09:07;;;;;;;10.45;3.88;;;;;;;13.43;71.11;98818.25;5010823;28;20053;-49
2021/10/28 19:11:33;;;;;;;5.95;2.97;;;;;;;13.43;70.79;98818.25;5004125;28;20134;-49
2021/10/28 19:14:00;;;;;;;8.82;3.70;;;;;;;13.41;71.07;98814.84;5013475;28;20049;-49
2021/10/28 19:16:26;;;;;;;7.88;3.33;;;;;;;13.37;71.30;98793.31;5010072;28;20045;-49
2021/10/28 19:18:54;;;;;;;6.55;3.70;;;;;;;13.35;71.14;98795.09;5002304;28;20049;-49
2021/10/28 19:21:21;;;;;;;7.03;3.20;;;;;;;13.30;71.37;98775.34;5006451;28;20445;-49
2021/10/28 19:23:47;;;;;;;5.82;3.50;;;;;;;13.23;71.47;98770.38;5017982;28;20478;-48
2021/10/28 19:26:14;;;;;;;7.28;2.65;;;;;;;13.22;70.07;98757.44;5005964;28;20104;-48
2021/10/28 19:28:43;;;;;;;7.07;2.88;;;;;;;13.15;71.26;98750.75;5007874;28;20041;-49
2021/10/28 19:31:14;;;;;;;9.60;2.92;;;;;;;13.10;70.84;98740.50;5006212;28;20084;-49